Time;durP1;ratioP1;P1;durP2;ratioP2;P2;SDS_P1;SDS_P2;PMS_P1;PMS_P2;Temp;Humidity;BMP_temperature;BMP_pressure;BME280_temperature;BME280_humidity;BME280_pressure;Samples;Min_cycle;Max_cycle;Signal;HPM_P1;HPM_P2
2023/03/02 00:00:43;;;;;;;27.17;16.13;;;;;;;1.09;90.09;98293.81;5013066;28;20228;-78
2023/03/02 00:03:10;;;;;;;26.33;16.37;;;;;;;1.08;89.76;98292.97;5013111;28;20213;-78
2023/03/02 00:05:39;;;;;;;28.07;16.93;;;;;;;1.11;89.48;98290.25;5013125;28;20610;-78
2023/03/02 00:08:07;;;;;;;30.27;17.47;;;;;;;1.17;89.39;98292.69;5012762;28;20211;-78
2023/03/02 00:10:35;;;;;;;26.87;16.80;;;;;;;1.08;89.46;98290.38;5013234;28;20231;-78
2023/03/02 00:13:03;;;;;;;29.13;17.33;;;;;;;1.11;89.41;98289.44;5013450;28;20211;-78
2023/03/02 00:15:29;;;;;;;29.03;17.67;;;;;;;1.11;90.08;98292.88;5013109;28;20208;-78
2023/03/02 00:17:56;;;;;;;26.87;16.33;;;;;;;1.01;89.94;98291.44;5013847;28;20232;-78
2023/03/02 00:20:22;;;;;;;25.70;16.37;;;;;;;1.06;90.20;98299.94;5023104;28;20243;-78
2023/03/02 00:22:49;;;;;;;26.67;16.13;;;;;;;1.04;90.09;98283.53;5023268;28;20207;-79
2023/03/02 00:25:17;;;;;;;26.70;16.27;;;;;;;1.08;90.52;98290.38;5019954;28;20212;-78
2023/03/02 00:27:43;;;;;;;25.67;16.33;;;;;;;0.98;90.73;98286.31;5018335;28;20577;-78
2023/03/02 00:30:15;;;;;;;30.00;16.97;;;;;;;1.00;90.58;98273.28;5013782;28;20232;-79
2023/03/02 00:32:43;;;;;;;29.70;17.43;;;;;;;1.09;90.25;98278.19;5012839;28;20215;-78
2023/03/02 00:35:10;;;;;;;26.90;16.03;;;;;;;1.10;90.26;98272.94;5012560;28;20213;-78
2023/03/02 00:37:38;;;;;;;30.20;17.43;;;;;;;1.09;90.02;98281.66;5012147;28;20238;-78
2023/03/02 00:40:08;;;;;;;27.83;17.07;;;;;;;1.04;89.69;98269.69;5041846;22;20238;-83
2023/03/02 00:42:34;;;;;;;30.57;16.37;;;;;;;0.95;90.75;98275.16;5052033;28;20210;-81
2023/03/02 00:45:01;;;;;;;27.53;17.43;;;;;;;0.83;91.14;98268.56;5051839;28;20210;-81
2023/03/02 00:47:29;;;;;;;30.77;17.33;;;;;;;0.70;92.18;98277.63;5051153;28;20206;-81
2023/03/02 00:49:56;;;;;;;29.20;17.40;;;;;;;0.74;91.95;98270.56;5051667;28;20654;-81
2023/03/02 00:52:23;;;;;;;29.63;16.57;;;;;;;0.70;92.95;98280.22;5051790;28;20218;-81
2023/03/02 00:54:49;;;;;;;28.83;17.17;;;;;;;0.65;93.13;98279.47;5051783;28;20236;-81
2023/03/02 00:57:16;;;;;;;31.17;16.73;;;;;;;0.57;93.56;98278.81;5051311;28;20235;-81
2023/03/02 00:59:42;;;;;;;32.07;17.20;;;;;;;0.51;94.08;98275.56;5051446;28;20724;-81
2023/03/02 01:02:09;;;;;;;34.03;17.33;;;;;;;0.51;94.21;98281.59;5051390;28;20219;-81
2023/03/02 01:04:38;;;;;;;32.43;17.97;;;;;;;0.49;94.75;98282.56;5051732;28;20671;-81
2023/03/02 01:07:09;;;;;;;32.37;18.90;;;;;;;0.53;95.35;98281.56;5051308;28;20236;-81
2023/03/02 01:09:37;;;;;;;29.13;16.77;;;;;;;0.56;94.88;98282.31;5051524;28;20294;-81
2023/03/02 01:12:04;;;;;;;28.87;17.03;;;;;;;0.52;95.29;98280.72;5051509;28;20237;-81
2023/03/02 01:14:31;;;;;;;32.40;17.90;;;;;;;0.52;94.86;98264.25;5051397;28;20207;-81
2023/03/02 01:16:57;;;;;;;31.73;18.53;;;;;;;0.38;96.01;98267.22;5051349;28;20254;-81
2023/03/02 01:19:24;;;;;;;30.53;18.43;;;;;;;0.31;95.92;98268.28;5051268;28;20321;-82
2023/03/02 01:21:52;;;;;;;32.40;18.80;;;;;;;0.21;97.03;98264.25;5051497;28;20229;-82
2023/03/02 01:24:18;;;;;;;31.43;18.50;;;;;;;0.23;96.52;98265.03;5051266;28;20208;-82
2023/03/02 01:26:45;;;;;;;33.17;18.07;;;;;;;0.23;97.21;98259.84;5051020;28;20217;-82
2023/03/02 01:29:11;;;;;;;31.93;19.00;;;;;;;0.23;97.21;98264.19;5050978;28;20215;-82
2023/03/02 01:31:38;;;;;;;31.83;18.37;;;;;;;0.22;97.82;98255.56;5051427;28;20215;-82
2023/03/02 01:34:04;;;;;;;27.93;16.63;;;;;;;0.20;97.62;98257.31;5051322;28;20261;-82
2023/03/02 01:36:31;;;;;;;31.27;19.17;;;;;;;0.25;97.25;98260.66;5051098;28;20209;-82
2023/03/02 01:38:59;;;;;;;30.80;18.20;;;;;;;0.18;97.46;98256.50;5051198;28;20213;-82
2023/03/02 01:41:25;;;;;;;32.00;20.07;;;;;;;0.20;98.02;98249.53;5050968;28;20716;-82
2023/03/02 01:43:51;;;;;;;31.13;18.60;;;;;;;0.20;97.89;98241.72;5051032;28;20218;-83
2023/03/02 01:46:20;;;;;;;29.80;18.33;;;;;;;0.17;98.08;98241.81;5051025;28;20210;-81
2023/03/02 01:48:49;;;;;;;32.03;17.60;;;;;;;0.18;97.39;98238.31;5051329;28;20543;-82
2023/03/02 01:51:19;;;;;;;30.43;18.33;;;;;;;0.14;98.02;98247.09;5051085;28;20233;-81
2023/03/02 01:53:48;;;;;;;34.33;18.30;;;;;;;0.09;98.74;98243.78;5051110;28;20289;-82
2023/03/02 01:56:18;;;;;;;30.90;17.53;;;;;;;0.02;99.04;98239.59;5051020;28;20221;-82
2023/03/02 01:58:48;;;;;;;31.17;17.73;;;;;;;0.05;99.12;98236.06;5051114;28;20236;-82
2023/03/02 02:01:15;;;;;;;30.63;17.67;;;;;;;0.04;98.92;98243.03;5054939;28;20230;-82
2023/03/02 02:03:44;;;;;;;32.20;17.97;;;;;;;-0.01;98.93;98237.09;5055103;28;20283;-82
2023/03/02 02:06:17;;;;;;;30.10;17.57;;;;;;;-0.07;99.45;98237.25;5054908;28;20210;-82
2023/03/02 02:08:44;;;;;;;33.47;18.63;;;;;;;-0.04;99.08;98228.53;5054914;28;20210;-82
2023/03/02 02:11:11;;;;;;;37.47;19.37;;;;;;;0.04;99.52;98224.84;5054809;28;20233;-82
2023/03/02 02:13:39;;;;;;;31.30;18.33;;;;;;;0.14;99.07;98218.50;5054956;28;20208;-82
2023/03/02 02:16:07;;;;;;;29.33;17.83;;;;;;;0.13;98.30;98211.59;5054819;28;20217;-82
2023/03/02 02:18:37;;;;;;;34.47;18.60;;;;;;;0.12;98.71;98217.69;5054582;28;20730;-82
2023/03/02 02:21:04;;;;;;;33.23;18.77;;;;;;;0.12;98.85;98211.63;5054689;28;20256;-82
2023/03/02 02:23:39;;;;;;;34.93;19.10;;;;;;;0.14;98.36;98210.69;5054556;28;20538;-82
2023/03/02 02:26:22;;;;;;;34.77;18.37;;;;;;;0.16;98.13;98203.75;5054496;28;20296;-82
2023/03/02 02:28:56;;;;;;;31.10;18.67;;;;;;;0.21;98.06;98204.47;5054829;28;20213;-81
2023/03/02 02:31:28;;;;;;;31.37;18.40;;;;;;;0.16;97.58;98203.75;5054673;28;20249;-82
2023/03/02 02:34:00;;;;;;;33.43;19.37;;;;;;;0.22;98.57;98203.56;5054368;28;20210;-82
2023/03/02 02:36:32;;;;;;;30.80;17.40;;;;;;;0.26;98.38;98202.56;5054203;28;20211;-82
2023/03/02 02:39:01;;;;;;;31.03;18.40;;;;;;;0.24;97.96;98200.91;5054444;28;20227;-82
2023/03/02 02:41:34;;;;;;;31.90;18.27;;;;;;;0.20;97.83;98200.13;5054389;28;20553;-82
2023/03/02 02:44:00;;;;;;;33.47;18.63;;;;;;;0.25;98.09;98193.06;5054310;28;20298;-82
2023/03/02 02:46:27;;;;;;;33.53;18.57;;;;;;;0.20;98.18;98189.75;5053910;28;20221;-82
2023/03/02 02:48:53;;;;;;;33.10;17.83;;;;;;;0.15;98.13;98190.78;5054339;28;20213;-82
2023/03/02 02:51:27;;;;;;;35.40;19.80;;;;;;;0.11;97.74;98195.22;5054316;28;20233;-82
2023/03/02 02:53:57;;;;;;;30.83;18.43;;;;;;;0.08;98.65;98194.44;5054177;28;20220;-82
2023/03/02 02:56:26;;;;;;;26.93;16.87;;;;;;;0.06;98.10;98185.81;5053689;28;20219;-82
2023/03/02 02:58:57;;;;;;;30.33;19.17;;;;;;;0.08;98.57;98190.09;5053696;28;20235;-82
2023/03/02 03:01:25;;;;;;;32.50;17.80;;;;;;;0.07;98.25;98190.97;5053819;28;20720;-82
2023/03/02 03:03:54;;;;;;;28.67;18.10;;;;;;;0.09;98.18;98191.81;5053958;28;20217;-82
2023/03/02 03:06:25;;;;;;;30.07;17.80;;;;;;;0.03;98.46;98199.78;5053536;28;20213;-82
2023/03/02 03:08:55;;;;;;;36.80;17.93;;;;;;;0.07;98.66;98196.19;5053607;28;20236;-82
2023/03/02 03:11:25;;;;;;;31.97;17.93;;;;;;;0.03;98.77;98198.91;5052513;28;20594;-82
2023/03/02 03:13:58;;;;;;;32.67;18.23;;;;;;;0.02;98.85;98189.41;5053502;28;20215;-82
2023/03/02 03:16:27;;;;;;;35.83;18.83;;;;;;;0.08;98.82;98186.66;5053427;28;20214;-82
2023/03/02 03:18:56;;;;;;;30.73;17.73;;;;;;;0.03;98.82;98193.72;5053335;28;20340;-82
2023/03/02 03:21:23;;;;;;;33.00;18.03;;;;;;;0.08;99.29;98184.06;5053596;28;20318;-82
2023/03/02 03:23:49;;;;;;;31.00;18.40;;;;;;;0.06;98.86;98189.28;5053363;28;20214;-82
2023/03/02 03:26:16;;;;;;;31.87;18.40;;;;;;;0.06;99.19;98188.41;5053328;28;20268;-82
2023/03/02 03:28:43;;;;;;;31.07;18.03;;;;;;;0.10;99.05;98183.13;5053408;28;20201;-82
2023/03/02 03:31:10;;;;;;;29.67;17.73;;;;;;;0.01;99.37;98183.34;5053414;28;20224;-82
2023/03/02 03:33:37;;;;;;;33.60;17.83;;;;;;;0.10;99.30;98180.53;5053468;28;20206;-82
2023/03/02 03:36:04;;;;;;;36.50;20.23;;;;;;;0.06;99.49;98176.28;5053337;28;20215;-82
2023/03/02 03:38:31;;;;;;;32.10;18.50;;;;;;;0.00;99.45;98176.47;5052883;28;20225;-82
2023/03/02 03:40:57;;;;;;;32.93;18.90;;;;;;;-0.06;99.95;98181.81;5052885;28;20241;-82
2023/03/02 03:43:24;;;;;;;32.63;19.23;;;;;;;-0.13;100.00;98188.97;5053339;28;20225;-82
2023/03/02 03:45:51;;;;;;;31.10;18.40;;;;;;;-0.11;100.00;98188.88;5053186;28;20214;-82
2023/03/02 03:48:18;;;;;;;32.77;18.07;;;;;;;-0.03;100.00;98192.13;5052864;28;20259;-81
2023/03/02 03:50:45;;;;;;;34.20;19.17;;;;;;;-0.16;100.00;98190.72;5052974;28;20606;-82
2023/03/02 03:53:11;;;;;;;33.17;18.43;;;;;;;-0.17;100.00;98196.81;5052933;28;20210;-82
2023/03/02 03:55:38;;;;;;;32.77;19.33;;;;;;;-0.23;100.00;98198.75;5052963;28;20215;-82
2023/03/02 03:58:05;;;;;;;31.33;18.97;;;;;;;-0.23;100.00;98197.88;5052567;28;20707;-82
2023/03/02 04:00:31;;;;;;;34.13;18.67;;;;;;;-0.35;100.00;98198.19;5052869;28;20331;-82
2023/03/02 04:02:57;;;;;;;33.33;18.43;;;;;;;-0.46;100.00;98197.59;5052995;28;20214;-82
2023/03/02 04:05:25;;;;;;;34.80;19.20;;;;;;;-0.48;100.00;98197.66;5052737;28;20217;-82
2023/03/02 04:07:52;;;;;;;30.10;17.67;;;;;;;-0.46;100.00;98192.41;5052405;28;20202;-82
2023/03/02 04:10:19;;;;;;;33.83;19.67;;;;;;;-0.40;100.00;98200.03;5052416;28;20229;-82
2023/03/02 04:12:45;;;;;;;32.73;18.93;;;;;;;-0.42;100.00;98207.03;5052584;28;20216;-82
2023/03/02 04:15:15;;;;;;;34.90;19.80;;;;;;;-0.43;100.00;98200.97;5052687;28;20214;-82
2023/03/02 04:17:43;;;;;;;33.30;20.30;;;;;;;-0.43;100.00;98200.13;5052735;28;20211;-82
2023/03/02 04:20:15;;;;;;;36.57;20.47;;;;;;;-0.49;100.00;98203.72;5052335;28;20234;-82
2023/03/02 04:22:44;;;;;;;31.53;19.07;;;;;;;-0.49;100.00;98197.69;5052542;28;20620;-82
2023/03/02 04:25:12;;;;;;;36.10;19.33;;;;;;;-0.47;100.00;98208.88;5052556;28;20566;-82
2023/03/02 04:27:38;;;;;;;37.30;19.33;;;;;;;-0.50;100.00;98208.97;5052061;28;20210;-82
2023/03/02 04:30:06;;;;;;;31.80;18.13;;;;;;;-0.45;100.00;98209.72;5052146;28;20721;-82
2023/03/02 04:32:33;;;;;;;34.00;19.63;;;;;;;-0.49;100.00;98206.31;5052183;28;20234;-82
2023/03/02 04:35:00;;;;;;;32.97;18.83;;;;;;;-0.46;100.00;98207.97;5052126;28;20676;-82
2023/03/02 04:37:26;;;;;;;32.97;19.40;;;;;;;-0.50;100.00;98206.38;5051875;28;20217;-82
2023/03/02 04:39:54;;;;;;;33.43;19.20;;;;;;;-0.55;100.00;98211.66;5051780;28;20305;-82
2023/03/02 04:42:21;;;;;;;35.67;18.47;;;;;;;-0.54;100.00;98205.59;5052100;28;20228;-82
2023/03/02 04:44:48;;;;;;;36.33;20.30;;;;;;;-0.56;100.00;98214.31;5052059;28;20210;-81
2023/03/02 04:47:15;;;;;;;35.00;19.93;;;;;;;-0.57;100.00;98212.59;5051724;28;20213;-82
2023/03/02 04:49:41;;;;;;;37.97;21.83;;;;;;;-0.63;100.00;98212.75;5052097;28;20230;-81
2023/03/02 04:52:08;;;;;;;34.00;19.87;;;;;;;-0.59;100.00;98214.38;5051772;28;20212;-81
2023/03/02 04:54:34;;;;;;;35.57;19.93;;;;;;;-0.61;100.00;98205.78;5051884;28;20222;-81
2023/03/02 04:57:02;;;;;;;35.23;19.77;;;;;;;-0.59;100.00;98214.38;5051417;28;20213;-81
2023/03/02 04:59:29;;;;;;;34.30;19.80;;;;;;;-0.59;100.00;98216.97;5051420;28;20236;-81
2023/03/02 05:01:57;;;;;;;33.20;19.27;;;;;;;-0.67;100.00;98205.91;5051858;28;20212;-81
2023/03/02 05:04:24;;;;;;;36.07;21.03;;;;;;;-0.65;100.00;98211.91;5051772;28;20545;-82
2023/03/02 05:06:50;;;;;;;33.47;20.17;;;;;;;-0.61;100.00;98210.97;5051604;28;20208;-81
2023/03/02 05:09:17;;;;;;;36.93;19.80;;;;;;;-0.61;100.00;98208.38;5051522;28;20218;-81
2023/03/02 05:11:44;;;;;;;37.47;20.07;;;;;;;-0.63;100.00;98211.00;5051717;28;20214;-81
2023/03/02 05:14:12;;;;;;;35.77;20.87;;;;;;;-0.68;100.00;98210.25;5051657;28;20216;-81
2023/03/02 05:16:40;;;;;;;33.23;19.03;;;;;;;-0.57;100.00;98210.00;5051460;28;20218;-81
2023/03/02 05:19:10;;;;;;;33.23;18.93;;;;;;;-0.66;100.00;98207.63;5051741;28;20240;-81
2023/03/02 05:21:36;;;;;;;31.53;18.43;;;;;;;-0.66;100.00;98205.03;5051536;28;20213;-81
2023/03/02 05:24:03;;;;;;;35.83;20.00;;;;;;;-0.69;100.00;98202.53;5051501;28;20219;-81
2023/03/02 05:26:30;;;;;;;33.87;19.33;;;;;;;-0.67;100.00;98203.31;5051176;28;20314;-81
2023/03/02 05:28:56;;;;;;;30.87;18.93;;;;;;;-0.75;100.00;98203.50;5051277;28;20204;-81
2023/03/02 05:31:29;;;;;;;38.57;20.00;;;;;;;-0.72;100.00;98198.25;5051452;28;20230;-81
2023/03/02 05:33:55;;;;;;;34.53;19.30;;;;;;;-0.76;100.00;98195.75;5050795;28;20214;-81
2023/03/02 05:36:22;;;;;;;35.90;20.10;;;;;;;-0.75;100.00;98197.47;5050752;28;20210;-81
2023/03/02 05:38:49;;;;;;;31.93;19.07;;;;;;;-0.83;100.00;98199.38;5051080;28;20240;-81
2023/03/02 05:41:15;;;;;;;30.30;18.70;;;;;;;-0.76;100.00;98195.75;5051029;28;20248;-81
2023/03/02 05:43:42;;;;;;;34.10;20.00;;;;;;;-0.76;100.00;98201.78;5051672;28;20212;-81
2023/03/02 05:46:09;;;;;;;36.03;19.70;;;;;;;-0.79;100.00;98201.03;5051605;28;20215;-81
2023/03/02 05:48:37;;;;;;;35.83;19.13;;;;;;;-0.78;100.00;98202.72;5051663;28;20220;-81
2023/03/02 05:51:04;;;;;;;30.30;18.57;;;;;;;-0.73;100.00;98206.06;5057541;28;20215;-81
2023/03/02 05:53:30;;;;;;;35.17;19.40;;;;;;;-0.62;100.00;98204.91;5071644;28;20211;-81
2023/03/02 05:55:57;;;;;;;38.73;19.47;;;;;;;-0.60;100.00;98210.94;5071262;28;20218;-81
2023/03/02 05:58:23;;;;;;;36.43;20.33;;;;;;;-0.56;100.00;98199.56;5070938;28;20228;-80
2023/03/02 06:00:50;;;;;;;32.33;18.43;;;;;;;-0.52;100.00;98211.59;5071321;28;20235;-80
2023/03/02 06:03:17;;;;;;;34.67;19.43;;;;;;;-0.45;100.00;98212.31;5071283;28;20215;-80
2023/03/02 06:05:49;;;;;;;33.07;19.00;;;;;;;-0.46;100.00;98207.97;5071397;28;20209;-81
2023/03/02 06:08:16;;;;;;;33.10;18.60;;;;;;;-0.40;100.00;98205.22;5071000;28;20690;-81
2023/03/02 06:10:43;;;;;;;37.50;20.87;;;;;;;-0.43;100.00;98208.75;5071470;28;20231;-82
2023/03/02 06:13:09;;;;;;;38.10;19.27;;;;;;;-0.45;100.00;98217.50;5071410;28;20220;-82
2023/03/02 06:15:36;;;;;;;35.37;18.80;;;;;;;-0.43;100.00;98219.13;5071340;28;20217;-81
2023/03/02 06:18:03;;;;;;;33.63;19.03;;;;;;;-0.46;100.00;98218.38;5070319;28;20206;-81
2023/03/02 06:20:29;;;;;;;34.83;18.40;;;;;;;-0.42;100.00;98214.81;5070778;28;20745;-82
2023/03/02 06:22:57;;;;;;;35.87;20.27;;;;;;;-0.31;100.00;98225.78;5070642;28;20227;-82
2023/03/02 06:25:24;;;;;;;33.53;18.50;;;;;;;-0.30;100.00;98227.50;5070634;28;20223;-81
2023/03/02 06:27:52;;;;;;;34.23;19.37;;;;;;;-0.24;100.00;98227.34;5070748;28;20219;-81
2023/03/02 06:30:21;;;;;;;32.83;18.63;;;;;;;-0.22;100.00;98230.75;5070563;28;20692;-82
2023/03/02 06:32:47;;;;;;;38.17;18.87;;;;;;;-0.18;100.00;98227.19;5071061;28;20209;-81
2023/03/02 06:35:14;;;;;;;31.57;18.40;;;;;;;-0.12;100.00;98223.53;5070586;28;20214;-81
2023/03/02 06:37:41;;;;;;;33.13;19.43;;;;;;;-0.06;100.00;98231.16;5070116;28;20623;-80
2023/03/02 06:40:12;;;;;;;33.47;19.53;;;;;;;-0.04;100.00;98231.97;5076367;22;20243;-78
2023/03/02 06:42:40;;;;;;;35.20;19.17;;;;;;;-0.08;100.00;98225.16;5030475;28;20210;-78
2023/03/02 06:45:08;;;;;;;28.80;17.90;;;;;;;-0.06;100.00;98233.78;5030527;28;20217;-78
2023/03/02 06:47:34;;;;;;;33.03;18.33;;;;;;;-0.11;100.00;98229.59;5032740;28;20220;-78
2023/03/02 06:50:01;;;;;;;33.73;18.43;;;;;;;-0.21;100.00;98235.91;5034161;28;20234;-78
2023/03/02 06:52:27;;;;;;;33.83;19.17;;;;;;;-0.12;100.00;98228.72;5034134;28;20214;-78
2023/03/02 06:54:54;;;;;;;32.63;17.80;;;;;;;-0.06;100.00;98228.56;5033938;28;20222;-79
2023/03/02 06:57:23;;;;;;;32.77;17.77;;;;;;;0.02;100.00;98230.97;5033993;28;20218;-79
2023/03/02 06:59:49;;;;;;;33.13;18.37;;;;;;;-0.06;100.00;98238.97;5033776;28;20233;-80
2023/03/02 07:02:16;;;;;;;33.43;18.30;;;;;;;-0.10;100.00;98242.53;5033912;28;20218;-78
2023/03/02 07:04:42;;;;;;;33.27;18.87;;;;;;;-0.04;100.00;98244.97;5034229;28;20214;-79
2023/03/02 07:07:08;;;;;;;31.90;17.93;;;;;;;0.02;100.00;98256.97;5033510;28;20206;-79
2023/03/02 07:09:35;;;;;;;31.83;17.07;;;;;;;0.03;100.00;98254.34;5033587;28;20715;-79
2023/03/02 07:12:02;;;;;;;34.47;18.07;;;;;;;0.12;100.00;98248.88;5033722;28;20218;-79
2023/03/02 07:14:30;;;;;;;30.03;17.90;;;;;;;0.34;100.00;98250.03;5034087;28;20218;-79
2023/03/02 07:16:58;;;;;;;31.50;17.27;;;;;;;0.46;100.00;98249.69;5033235;28;20213;-77
2023/03/02 07:19:25;;;;;;;30.60;17.40;;;;;;;0.51;100.00;98242.59;5033365;28;20231;-78
2023/03/02 07:21:51;;;;;;;29.47;17.67;;;;;;;0.59;99.34;98245.84;5033628;28;20212;-77
2023/03/02 07:24:18;;;;;;;32.77;17.87;;;;;;;0.71;98.92;98250.69;5033504;28;20210;-79
2023/03/02 07:26:44;;;;;;;32.23;17.93;;;;;;;0.80;97.58;98245.22;5033182;28;20670;-79
2023/03/02 07:29:11;;;;;;;31.53;17.73;;;;;;;0.81;97.42;98248.69;5033462;28;20208;-79
2023/03/02 07:31:39;;;;;;;33.33;18.30;;;;;;;0.82;96.96;98248.66;5033436;28;20720;-79
2023/03/02 07:34:05;;;;;;;29.47;17.73;;;;;;;0.87;96.52;98245.91;5033412;28;20218;-78
2023/03/02 07:36:32;;;;;;;31.10;17.57;;;;;;;0.98;96.11;98249.88;5033341;28;20221;-78
2023/03/02 07:38:58;;;;;;;29.77;17.17;;;;;;;1.10;95.63;98246.91;5033242;28;20267;-79
2023/03/02 07:41:25;;;;;;;32.83;17.97;;;;;;;1.12;95.39;98247.72;5032957;28;20235;-79
2023/03/02 07:43:51;;;;;;;32.30;18.00;;;;;;;1.18;94.85;98250.13;5033044;28;20215;-78
2023/03/02 07:46:18;;;;;;;27.77;16.43;;;;;;;1.31;94.43;98248.03;5032858;28;20573;-78
2023/03/02 07:48:45;;;;;;;33.28;19.30;;;;;;;1.38;94.36;98250.41;5031492;28;20551;-79
2023/03/02 07:51:12;;;;;;;33.03;17.87;;;;;;;1.44;93.94;98254.56;5031212;28;20685;-79
2023/03/02 07:53:38;;;;;;;32.57;17.87;;;;;;;1.57;93.69;98248.91;5032127;28;20211;-79
2023/03/02 07:56:09;;;;;;;30.67;18.23;;;;;;;1.66;92.77;98255.59;5029992;28;20210;-78
2023/03/02 07:58:37;;;;;;;32.20;17.47;;;;;;;1.69;92.06;98256.34;5031700;28;20223;-78
2023/03/02 08:01:04;;;;;;;31.27;17.80;;;;;;;1.75;93.04;98256.16;5032819;28;20223;-85
2023/03/02 08:03:30;;;;;;;29.80;16.67;;;;;;;1.85;92.95;98254.09;5031673;28;20701;-84
2023/03/02 08:05:59;;;;;;;31.70;17.80;;;;;;;2.01;93.41;98258.72;5031409;28;20205;-85
2023/03/02 08:08:25;;;;;;;30.53;17.10;;;;;;;2.07;93.06;98263.75;5031850;28;20220;-84
2023/03/02 08:10:52;;;;;;;31.10;16.70;;;;;;;2.16;93.09;98258.22;5031808;28;20238;-86
2023/03/02 08:13:18;;;;;;;27.77;16.43;;;;;;;2.25;92.33;98255.28;5031508;28;20217;-84
2023/03/02 08:15:45;;;;;;;30.88;19.75;;;;;;;2.28;92.65;98256.94;5012659;28;20434;-84
2023/03/02 08:18:11;;;;;;;28.30;16.97;;;;;;;2.27;92.88;98263.91;5012697;28;20588;-82
2023/03/02 08:20:38;;;;;;;26.40;15.60;;;;;;;2.27;93.44;98266.50;5012900;28;20874;-82
2023/03/02 08:23:06;;;;;;;29.37;16.60;;;;;;;2.31;93.88;98260.31;5012654;28;20222;-83
2023/03/02 08:25:32;;;;;;;26.90;15.80;;;;;;;2.33;93.33;98260.25;5012616;28;20233;-83
2023/03/02 08:27:59;;;;;;;28.70;16.57;;;;;;;2.49;93.46;98257.06;5012253;28;20702;-84
2023/03/02 08:30:25;;;;;;;26.90;16.27;;;;;;;2.53;93.48;98261.25;5011491;28;20228;-84
2023/03/02 08:32:52;;;;;;;29.87;16.63;;;;;;;2.63;93.47;98265.22;5011200;28;20237;-84
2023/03/02 08:35:20;;;;;;;23.20;14.93;;;;;;;2.86;93.07;98254.81;5011667;28;20212;-84
2023/03/02 08:37:47;;;;;;;23.53;14.47;;;;;;;3.03;91.90;98252.44;5011505;28;20237;-85
2023/03/02 08:40:15;;;;;;;28.33;15.13;;;;;;;3.16;89.62;98244.97;5015541;28;20247;-84
2023/03/02 08:42:41;;;;;;;25.80;15.20;;;;;;;3.23;89.57;98236.84;5013896;28;20301;-84
2023/03/02 08:45:09;;;;;;;27.07;15.53;;;;;;;3.36;89.05;98234.63;5011733;28;20209;-84
2023/03/02 08:47:36;;;;;;;25.30;15.13;;;;;;;3.42;89.35;98235.22;5011519;28;20215;-85
2023/03/02 08:50:02;;;;;;;26.80;15.33;;;;;;;3.53;87.46;98235.66;5011366;28;20585;-84
2023/03/02 08:52:29;;;;;;;23.20;14.30;;;;;;;3.63;85.91;98221.31;5011212;28;20224;-85
2023/03/02 08:54:55;;;;;;;22.57;14.13;;;;;;;3.67;85.39;98217.66;5011208;28;20228;-85
2023/03/02 08:57:23;;;;;;;24.10;14.73;;;;;;;3.74;85.28;98211.25;5010589;28;20218;-88
2023/03/02 08:59:51;;;;;;;26.80;15.40;;;;;;;3.84;83.97;98207.38;5011956;28;20244;-85
2023/03/02 09:02:17;;;;;;;27.70;14.80;;;;;;;3.95;83.01;98201.69;5011378;28;20213;-85
2023/03/02 09:04:44;;;;;;;23.57;14.40;;;;;;;4.08;82.71;98197.63;5009811;28;20208;-86
2023/03/02 09:07:10;;;;;;;22.27;13.63;;;;;;;4.13;83.31;98201.78;5012000;28;20219;-85
2023/03/02 09:09:37;;;;;;;25.63;15.57;;;;;;;4.28;80.96;98195.88;5010976;28;20213;-84
2023/03/02 09:12:04;;;;;;;23.83;14.30;;;;;;;4.35;80.93;98196.47;5012022;28;20216;-84
2023/03/02 09:14:32;;;;;;;22.47;14.17;;;;;;;4.34;80.68;98197.38;5011760;28;20208;-83
2023/03/02 09:16:58;;;;;;;24.57;14.90;;;;;;;4.42;80.61;98196.13;5011440;28;20209;-84
2023/03/02 09:19:25;;;;;;;22.50;13.80;;;;;;;4.56;79.37;98196.38;5011676;28;20230;-76
2023/03/02 09:21:51;;;;;;;23.07;14.53;;;;;;;4.48;78.17;98182.78;5011793;28;20319;-78
2023/03/02 09:24:18;;;;;;;21.40;13.80;;;;;;;4.51;77.67;98179.16;5011416;28;20219;-78
2023/03/02 09:26:44;;;;;;;23.40;14.00;;;;;;;4.75;79.22;98196.38;5011500;28;20209;-78
2023/03/02 09:29:11;;;;;;;23.70;14.33;;;;;;;4.78;75.85;98180.56;5011612;28;20216;-79
2023/03/02 09:31:39;;;;;;;25.00;14.73;;;;;;;4.77;77.47;98181.47;5011569;28;20865;-78
2023/03/02 09:34:05;;;;;;;24.83;15.07;;;;;;;4.84;78.27;98188.97;5017839;28;20209;-78
2023/03/02 09:36:33;;;;;;;19.57;13.57;;;;;;;4.87;76.71;98180.13;5027946;28;20216;-77
2023/03/02 09:38:59;;;;;;;23.77;13.00;;;;;;;5.03;77.05;98182.00;5027682;28;20243;-78
2023/03/02 09:42:12;;;;;;;23.10;14.13;;;;;;;5.10;77.09;98188.63;5025341;28;20225;-79
2023/03/02 09:45:03;;;;;;;19.97;12.77;;;;;;;5.10;74.17;98182.53;5034925;28;20283;-79
2023/03/02 09:47:43;;;;;;;22.67;15.15;;;;;;;5.16;76.15;98196.22;5020529;28;20431;-77
2023/03/02 09:50:26;;;;;;;22.17;13.23;;;;;;;5.39;73.73;98188.13;5011429;28;20232;-78
2023/03/02 09:53:07;;;;;;;23.00;13.33;;;;;;;5.32;73.26;98176.19;5011581;28;20257;-78
2023/03/02 09:55:36;;;;;;;25.90;14.90;;;;;;;5.39;75.58;98201.22;5011346;28;20214;-78
2023/03/02 09:58:06;;;;;;;23.93;14.17;;;;;;;5.36;74.09;98196.09;5011232;28;20215;-78
2023/03/02 10:00:35;;;;;;;21.77;13.90;;;;;;;5.29;73.76;98193.84;5011151;28;20233;-83
2023/03/02 10:03:06;;;;;;;21.37;13.23;;;;;;;5.19;73.97;98195.22;5011431;28;20215;-82
2023/03/02 10:05:39;;;;;;;21.63;13.40;;;;;;;5.30;75.74;98212.13;5011240;28;20578;-87
2023/03/02 10:08:05;;;;;;;22.83;13.23;;;;;;;5.55;74.36;98196.91;5010923;28;20216;-82
2023/03/02 10:10:40;;;;;;;24.10;14.10;;;;;;;5.70;71.92;98184.84;5010957;28;20234;-82
2023/03/02 10:13:22;;;;;;;21.83;13.60;;;;;;;5.79;72.15;98184.38;5011240;28;20216;-82
2023/03/02 10:16:09;;;;;;;21.93;13.47;;;;;;;5.81;72.69;98188.66;5010971;28;20251;-83
2023/03/02 10:18:42;;;;;;;23.97;14.87;;;;;;;6.13;73.55;98198.41;5011146;28;20212;-83
2023/03/02 10:21:14;;;;;;;21.90;12.97;;;;;;;6.00;71.83;98194.72;5013236;28;20248;-82
2023/03/02 10:23:46;;;;;;;20.87;12.97;;;;;;;5.93;72.29;98193.31;5015086;28;20308;-83
2023/03/02 10:26:25;;;;;;;21.77;13.60;;;;;;;5.90;72.25;98193.47;5014556;28;20219;-85
2023/03/02 10:28:58;;;;;;;22.27;13.27;;;;;;;6.09;72.67;98202.13;5014974;28;20221;-85
2023/03/02 10:31:28;;;;;;;20.07;12.40;;;;;;;6.17;69.17;98181.56;5014802;28;20246;-86
2023/03/02 10:33:56;;;;;;;20.33;13.00;;;;;;;6.05;69.30;98191.84;5015008;28;20232;-84
2023/03/02 10:36:25;;;;;;;22.47;14.10;;;;;;;6.23;69.75;98186.50;5014537;28;20207;-80
2023/03/02 10:38:52;;;;;;;21.33;14.17;;;;;;;6.34;68.99;98184.19;5014999;28;20210;-82
2023/03/02 10:41:25;;;;;;;20.30;13.83;;;;;;;6.20;69.09;98188.44;5014330;28;20239;-81
2023/03/02 10:43:54;;;;;;;21.77;14.33;;;;;;;6.32;70.43;98191.31;5014779;28;20210;-82
2023/03/02 10:46:21;;;;;;;22.43;13.23;;;;;;;6.40;68.34;98178.63;5014147;28;20332;-81
2023/03/02 10:48:49;;;;;;;20.03;13.20;;;;;;;6.44;69.38;98176.69;5014366;28;20696;-81
2023/03/02 10:51:25;;;;;;;21.30;13.80;;;;;;;6.58;68.42;98176.81;5014432;28;20221;-80
2023/03/02 10:54:04;;;;;;;21.77;12.77;;;;;;;6.67;66.70;98166.69;5014212;28;20218;-83
2023/03/02 10:56:31;;;;;;;20.83;12.97;;;;;;;6.60;66.92;98162.66;5014316;28;20205;-85
2023/03/02 10:59:02;;;;;;;21.63;12.83;;;;;;;6.48;67.43;98171.19;5014364;28;20216;-79
2023/03/02 11:01:29;;;;;;;20.33;12.70;;;;;;;6.45;68.35;98168.75;5014167;28;20340;-79
2023/03/02 11:03:57;;;;;;;21.67;13.10;;;;;;;6.52;67.78;98161.38;5013852;28;20332;-81
2023/03/02 11:06:25;;;;;;;18.13;12.40;;;;;;;6.54;67.44;98162.16;5012773;28;20216;-86
2023/03/02 11:09:00;;;;;;;21.13;12.90;;;;;;;6.75;68.18;98172.38;5012316;28;20736;-86
2023/03/02 11:11:27;;;;;;;19.23;12.17;;;;;;;7.05;69.43;98170.72;5014165;28;20297;-87
2023/03/02 11:13:55;;;;;;;23.00;13.67;;;;;;;7.12;68.32;98161.56;5013930;28;20251;-87
2023/03/02 11:16:27;;;;;;;19.27;12.13;;;;;;;7.15;67.32;98156.13;5011428;28;20234;-88
2023/03/02 11:18:57;;;;;;;19.67;12.93;;;;;;;7.25;65.19;98146.81;5013841;28;20234;-88
2023/03/02 11:21:34;;;;;;;20.63;12.90;;;;;;;7.13;64.33;98134.34;5013903;28;20727;-88
2023/03/02 11:24:09;;;;;;;21.80;13.20;;;;;;;6.90;65.46;98132.13;5014033;28;20217;-87